createdAt,value
2018-09-15T00:00:08.037Z,6.80
2018-09-15T00:02:37.229Z,5.13
2018-09-15T00:05:06.470Z,5.10
2018-09-15T00:07:35.754Z,5.13
2018-09-15T00:10:04.835Z,4.97
2018-09-15T00:12:33.935Z,5.03
2018-09-15T00:15:02.993Z,6.17
2018-09-15T00:17:32.105Z,5.10
2018-09-15T00:20:01.170Z,5.87
2018-09-15T00:22:30.252Z,4.03
2018-09-15T00:24:59.499Z,5.47
2018-09-15T00:27:28.563Z,5.17
2018-09-15T00:29:57.686Z,5.20
2018-09-15T00:32:26.831Z,4.90
2018-09-15T00:34:56.101Z,6.27
2018-09-15T00:37:25.187Z,5.30
2018-09-15T00:39:54.380Z,4.90
2018-09-15T00:42:23.465Z,5.77
2018-09-15T00:44:52.544Z,5.70
2018-09-15T00:47:21.640Z,5.27
2018-09-15T00:49:50.846Z,5.03
2018-09-15T00:52:19.958Z,6.10
2018-09-15T00:54:49.108Z,4.93
2018-09-15T00:57:18.178Z,5.47
2018-09-15T00:59:47.335Z,5.40
2018-09-15T01:02:16.495Z,6.17
2018-09-15T01:04:45.652Z,5.17
2018-09-15T01:07:14.751Z,6.27
2018-09-15T01:09:43.833Z,6.53
2018-09-15T01:12:12.955Z,5.73
2018-09-15T01:14:42.045Z,6.10
2018-09-15T01:17:11.104Z,6.20
2018-09-15T01:19:40.335Z,6.07
2018-09-15T01:22:09.443Z,6.30
2018-09-15T01:24:38.528Z,6.03
2018-09-15T01:27:07.645Z,5.60
2018-09-15T01:29:36.768Z,6.07
2018-09-15T01:32:05.905Z,5.93
2018-09-15T01:34:35.045Z,5.80
2018-09-15T01:37:04.136Z,5.30
2018-09-15T01:39:33.225Z,4.77
2018-09-15T01:42:02.269Z,5.57
2018-09-15T01:44:31.353Z,5.30
2018-09-15T01:47:00.372Z,4.73
2018-09-15T01:49:29.440Z,5.10
2018-09-15T01:51:58.541Z,4.90
2018-09-15T01:54:27.687Z,4.57
2018-09-15T01:56:56.809Z,4.27
2018-09-15T01:59:25.929Z,5.07
2018-09-15T02:01:55.229Z,4.70
2018-09-15T02:04:24.351Z,5.20
2018-09-15T02:06:53.394Z,4.47
2018-09-15T02:09:22.431Z,4.70
2018-09-15T02:11:51.608Z,4.07
2018-09-15T02:14:20.717Z,4.50
2018-09-15T02:16:49.810Z,4.40
2018-09-15T02:19:18.844Z,5.03
2018-09-15T02:21:47.945Z,5.40
2018-09-15T02:24:16.997Z,4.87
2018-09-15T02:26:46.033Z,5.07
2018-09-15T02:29:15.104Z,4.40
2018-09-15T02:31:44.177Z,4.40
2018-09-15T02:34:13.238Z,4.67
2018-09-15T02:36:42.455Z,5.47
2018-09-15T02:39:12.322Z,5.40
2018-09-15T02:41:41.417Z,4.63
2018-09-15T02:44:10.536Z,4.80
2018-09-15T02:46:39.650Z,5.50
2018-09-15T02:49:08.703Z,5.30
2018-09-15T02:51:37.818Z,5.47
2018-09-15T02:54:07.103Z,5.50
2018-09-15T02:56:36.147Z,6.23
2018-09-15T02:59:05.255Z,4.93
2018-09-15T03:01:34.408Z,4.97
2018-09-15T03:04:03.497Z,6.17
2018-09-15T03:06:32.562Z,6.37
2018-09-15T03:09:01.638Z,4.60
2018-09-15T03:11:30.774Z,5.63
2018-09-15T03:13:59.891Z,6.30
2018-09-15T03:16:28.959Z,5.50
2018-09-15T03:18:58.025Z,5.70
2018-09-15T03:21:27.073Z,6.07
2018-09-15T03:23:56.180Z,5.60
2018-09-15T03:26:25.247Z,6.53
2018-09-15T03:28:54.490Z,5.97
2018-09-15T03:31:23.652Z,5.97
2018-09-15T03:33:52.850Z,5.87
2018-09-15T03:36:22.242Z,6.20
2018-09-15T03:38:51.299Z,5.60
2018-09-15T03:41:20.397Z,6.50
2018-09-15T03:43:49.801Z,5.67
2018-09-15T03:46:18.905Z,6.17
2018-09-15T03:48:47.947Z,6.67
2018-09-15T03:51:17.155Z,6.63
2018-09-15T03:53:46.271Z,6.60
2018-09-15T03:56:15.475Z,5.87
2018-09-15T03:58:44.545Z,6.20
2018-09-15T04:01:13.642Z,6.30
2018-09-15T04:03:43.306Z,5.30
2018-09-15T04:06:12.406Z,6.60
2018-09-15T04:08:41.483Z,6.00
2018-09-15T04:11:10.525Z,6.80
2018-09-15T04:13:39.696Z,7.20
2018-09-15T04:16:08.789Z,5.87
2018-09-15T04:18:37.862Z,7.70
2018-09-15T04:21:06.924Z,6.30
2018-09-15T04:23:35.973Z,5.70
2018-09-15T04:26:05.103Z,6.63
2018-09-15T04:28:34.197Z,6.30
2018-09-15T04:31:03.316Z,5.60
2018-09-15T04:33:32.410Z,5.93
2018-09-15T04:36:01.742Z,6.10
2018-09-15T04:38:30.815Z,6.33
2018-09-15T04:40:59.920Z,6.13
2018-09-15T04:43:28.980Z,6.10
2018-09-15T04:45:58.121Z,6.63
2018-09-15T04:48:28.056Z,7.00
2018-09-15T04:50:57.196Z,5.93
2018-09-15T04:53:26.333Z,7.13
2018-09-15T04:55:55.584Z,7.73
2018-09-15T04:58:24.644Z,5.90
2018-09-15T05:01:06.488Z,5.83
2018-09-15T05:03:36.190Z,6.80
2018-09-15T05:06:05.340Z,6.20
2018-09-15T05:08:34.484Z,5.60
2018-09-15T05:11:03.648Z,6.20
2018-09-15T05:13:32.867Z,6.20
2018-09-15T05:16:01.959Z,5.90
2018-09-15T05:18:31.174Z,7.00
2018-09-15T05:21:00.459Z,6.07
2018-09-15T05:23:29.861Z,6.83
2018-09-15T05:25:59.113Z,6.17
2018-09-15T05:28:28.274Z,6.50
2018-09-15T05:30:57.370Z,5.63
2018-09-15T05:33:26.433Z,7.03
2018-09-15T05:35:55.658Z,5.83
2018-09-15T05:38:24.749Z,5.70
2018-09-15T05:40:53.827Z,5.13
2018-09-15T05:43:22.917Z,5.80
2018-09-15T05:45:52.059Z,5.70
2018-09-15T05:48:21.134Z,5.97
2018-09-15T05:50:50.191Z,6.60
2018-09-15T05:53:19.331Z,6.33
2018-09-15T05:55:51.304Z,7.00
2018-09-15T05:58:20.381Z,6.70
2018-09-15T06:00:49.631Z,6.00
2018-09-15T06:03:18.702Z,6.60
2018-09-15T06:05:47.762Z,5.50
2018-09-15T06:08:16.919Z,6.70
2018-09-15T06:10:45.972Z,6.60
2018-09-15T06:13:15.055Z,6.27
2018-09-15T06:15:44.097Z,6.20
2018-09-15T06:18:13.227Z,6.13
2018-09-15T06:20:42.342Z,6.97
2018-09-15T06:23:11.486Z,5.97
2018-09-15T06:25:40.598Z,7.20
2018-09-15T06:28:10.297Z,6.20
2018-09-15T06:30:39.457Z,6.73
2018-09-15T06:33:08.671Z,6.43
2018-09-15T06:35:37.923Z,5.90
2018-09-15T06:38:07.001Z,5.57
2018-09-15T06:40:36.142Z,5.80
2018-09-15T06:43:05.359Z,6.17
2018-09-15T06:45:34.555Z,6.30
2018-09-15T06:48:03.814Z,5.83
2018-09-15T06:50:32.943Z,5.63
2018-09-15T06:53:02.067Z,6.07
2018-09-15T06:55:31.154Z,5.63
2018-09-15T06:58:00.306Z,6.30
2018-09-15T07:00:29.336Z,5.47
2018-09-15T07:02:58.394Z,6.63
2018-09-15T07:05:27.458Z,5.63
2018-09-15T07:07:56.734Z,6.93
2018-09-15T07:10:25.832Z,5.90
2018-09-15T07:12:54.980Z,6.03
2018-09-15T07:15:24.076Z,6.73
2018-09-15T07:17:53.152Z,5.90
2018-09-15T07:20:22.254Z,5.77
2018-09-15T07:22:51.421Z,5.70
2018-09-15T07:25:20.542Z,6.20
2018-09-15T07:27:49.592Z,5.50
2018-09-15T07:30:18.831Z,5.53
2018-09-15T07:32:47.959Z,5.87
2018-09-15T07:35:17.103Z,5.30
2018-09-15T07:37:46.272Z,5.70
2018-09-15T07:40:15.335Z,5.50
2018-09-15T07:42:44.425Z,5.77
2018-09-15T07:45:13.521Z,5.07
2018-09-15T07:47:42.633Z,4.90
2018-09-15T07:50:12.240Z,4.57
2018-09-15T07:52:41.349Z,4.60
2018-09-15T07:55:10.411Z,4.97
2018-09-15T07:57:39.786Z,4.30
2018-09-15T08:00:08.931Z,5.03
2018-09-15T08:02:38.068Z,4.97
2018-09-15T08:05:07.182Z,4.60
2018-09-15T08:07:36.373Z,4.50
2018-09-15T08:10:05.675Z,5.40
2018-09-15T08:12:34.785Z,4.83
2018-09-15T08:15:03.997Z,5.37
2018-09-15T08:17:33.121Z,5.33
2018-09-15T08:20:02.220Z,4.40
2018-09-15T08:22:31.377Z,4.37
2018-09-15T08:25:00.704Z,4.83
2018-09-15T08:27:30.036Z,5.50
2018-09-15T08:29:59.476Z,5.00
2018-09-15T08:32:28.931Z,5.40
2018-09-15T08:34:58.202Z,4.27
2018-09-15T08:37:27.490Z,4.33
2018-09-15T08:39:56.789Z,4.10
2018-09-15T08:42:25.988Z,5.20
2018-09-15T08:44:55.094Z,4.97
2018-09-15T08:47:24.272Z,4.90
2018-09-15T08:49:53.583Z,4.57
2018-09-15T08:52:22.745Z,3.97
2018-09-15T08:54:51.940Z,4.10
2018-09-15T08:57:21.065Z,4.70
2018-09-15T08:59:50.358Z,3.90
2018-09-15T09:02:19.484Z,3.70
2018-09-15T09:04:49.552Z,4.10
2018-09-15T09:07:18.710Z,3.60
2018-09-15T09:09:47.858Z,3.70
2018-09-15T09:12:17.025Z,3.50
2018-09-15T09:14:46.329Z,3.90
2018-09-15T09:17:15.377Z,3.57
2018-09-15T09:19:44.484Z,3.63
2018-09-15T09:22:13.607Z,4.57
2018-09-15T09:24:43.006Z,4.00
2018-09-15T09:27:12.243Z,4.37
2018-09-15T09:29:41.713Z,3.80
2018-09-15T09:32:10.844Z,4.83
2018-09-15T09:34:40.050Z,4.20
2018-09-15T09:37:09.711Z,4.60
2018-09-15T09:39:40.144Z,4.10
2018-09-15T09:42:10.737Z,4.20
2018-09-15T09:44:40.042Z,3.60
2018-09-15T09:47:09.288Z,4.27
2018-09-15T09:49:38.462Z,4.57
2018-09-15T09:52:07.978Z,5.10
2018-09-15T09:54:37.092Z,3.60
2018-09-15T09:57:06.212Z,3.60
2018-09-15T09:59:35.377Z,3.60
2018-09-15T10:02:10.854Z,4.13
2018-09-15T10:04:40.055Z,4.50
2018-09-15T10:07:11.144Z,4.73
2018-09-15T10:09:41.127Z,4.40
2018-09-15T10:12:10.193Z,5.10
2018-09-15T10:14:39.348Z,3.90
2018-09-15T10:17:10.106Z,4.73
2018-09-15T10:19:39.476Z,3.53
2018-09-15T10:22:08.661Z,4.23
2018-09-15T10:24:37.890Z,3.37
2018-09-15T10:27:07.900Z,4.23
2018-09-15T10:29:37.354Z,4.53
2018-09-15T10:32:07.072Z,3.90
2018-09-15T10:34:39.275Z,3.40
2018-09-15T10:37:08.577Z,3.90
2018-09-15T10:39:38.753Z,4.43
2018-09-15T10:42:08.114Z,4.20
2018-09-15T10:44:37.312Z,3.87
2018-09-15T10:47:06.595Z,3.50
2018-09-15T10:49:36.411Z,3.70
2018-09-15T10:52:05.535Z,3.20
2018-09-15T10:54:36.347Z,2.30
2018-09-15T10:57:06.420Z,2.43
2018-09-15T10:59:36.924Z,2.90
2018-09-15T11:02:06.581Z,2.10
2018-09-15T11:04:36.434Z,2.73
2018-09-15T11:07:06.352Z,1.90
2018-09-15T11:09:35.885Z,2.23
2018-09-15T11:12:05.048Z,2.77
2018-09-15T11:14:34.252Z,2.40
2018-09-15T11:17:04.370Z,2.00
2018-09-15T11:19:33.469Z,1.90
2018-09-15T11:22:02.819Z,1.87
2018-09-15T11:24:32.330Z,2.40
2018-09-15T11:27:08.287Z,1.70
2018-09-15T11:29:38.266Z,1.90
2018-09-15T11:32:12.133Z,1.77
2018-09-15T11:34:45.981Z,2.40
2018-09-15T11:37:19.933Z,2.00
2018-09-15T11:39:53.946Z,2.00
2018-09-15T11:42:29.100Z,2.60
2018-09-15T11:45:17.180Z,1.30
2018-09-15T11:48:01.746Z,1.30
2018-09-15T11:50:37.735Z,1.00
2018-09-15T11:53:19.666Z,1.60
2018-09-15T11:55:55.968Z,1.17
2018-09-15T11:58:37.757Z,1.17
2018-09-15T12:04:23.490Z,1.00
2018-09-15T12:07:02.009Z,0.87
2018-09-15T12:09:31.249Z,1.00
2018-09-15T12:12:00.437Z,1.33
2018-09-15T12:14:31.106Z,1.10
2018-09-15T12:17:00.445Z,0.80
2018-09-15T12:19:29.573Z,0.90
2018-09-15T12:22:00.041Z,1.40
2018-09-15T12:24:31.726Z,0.90
2018-09-15T12:27:01.084Z,1.30
2018-09-15T12:29:30.220Z,1.50
2018-09-15T12:32:00.828Z,1.90
2018-09-15T12:34:30.098Z,1.27
2018-09-15T12:37:03.047Z,1.40
2018-09-15T12:39:32.314Z,1.30
2018-09-15T12:42:02.399Z,1.90
2018-09-15T12:44:34.484Z,1.30
2018-09-15T12:47:05.406Z,1.57
2018-09-15T12:49:35.745Z,1.90
2018-09-15T12:52:10.075Z,1.70
2018-09-15T12:54:39.172Z,1.70
2018-09-15T12:57:13.849Z,1.53
2018-09-15T12:59:46.598Z,1.60
2018-09-15T13:02:18.529Z,1.93
2018-09-15T13:04:50.221Z,2.07
2018-09-15T13:07:21.989Z,1.90
2018-09-15T13:09:55.285Z,1.70
2018-09-15T13:12:26.631Z,1.77
2018-09-15T13:14:57.656Z,1.23
2018-09-15T13:17:31.720Z,1.67
2018-09-15T13:20:03.648Z,1.70
2018-09-15T13:22:35.016Z,1.90
2018-09-15T13:25:06.236Z,2.63
2018-09-15T13:27:40.073Z,1.73
2018-09-15T13:30:14.419Z,2.00
2018-09-15T13:32:51.203Z,2.20
2018-09-15T13:35:23.177Z,2.07
2018-09-15T13:37:55.703Z,1.57
2018-09-15T13:40:24.812Z,1.90
2018-09-15T13:42:55.295Z,1.97
2018-09-15T13:45:29.262Z,1.60
2018-09-15T13:48:00.043Z,2.13
2018-09-15T13:50:32.773Z,1.97
2018-09-15T13:53:12.542Z,2.30
2018-09-15T13:55:48.331Z,2.23
2018-09-15T13:58:25.183Z,1.80
2018-09-15T14:00:55.935Z,1.93
2018-09-15T14:03:27.684Z,2.20
2018-09-15T14:05:58.664Z,2.40
2018-09-15T14:08:36.328Z,2.10
2018-09-15T14:11:08.929Z,2.10
2018-09-15T14:13:42.701Z,1.70
2018-09-15T14:16:16.031Z,2.00
2018-09-15T14:18:50.257Z,2.00
2018-09-15T14:21:21.246Z,1.93
2018-09-15T14:23:55.371Z,2.00
2018-09-15T14:26:31.182Z,1.90
2018-09-15T14:29:02.373Z,2.00
2018-09-15T14:31:35.346Z,1.70
2018-09-15T14:34:04.550Z,1.83
2018-09-15T14:36:34.348Z,2.10
2018-09-15T14:39:07.669Z,2.07
2018-09-15T14:41:39.550Z,2.23
2018-09-15T14:44:12.569Z,2.30
2018-09-15T14:46:47.105Z,2.57
2018-09-15T14:49:20.613Z,1.73
2018-09-15T14:51:53.172Z,2.30
2018-09-15T14:54:22.932Z,1.53
2018-09-15T14:56:56.209Z,2.17
2018-09-15T14:59:29.750Z,1.30
2018-09-15T15:02:03.617Z,1.57
2018-09-15T15:04:38.444Z,2.30
2018-09-15T15:07:22.898Z,1.70
2018-09-15T15:10:00.119Z,2.07
2018-09-15T15:12:32.664Z,1.80
2018-09-15T15:15:02.916Z,1.60
2018-09-15T15:17:33.046Z,1.60
2018-09-15T15:20:10.566Z,1.97
2018-09-15T15:22:42.823Z,1.83
2018-09-15T15:25:19.905Z,1.80
2018-09-15T15:27:51.809Z,1.80
2018-09-15T15:30:23.947Z,1.43
2018-09-15T15:35:33.143Z,1.50
2018-09-15T15:38:07.383Z,1.60
2018-09-15T15:40:40.291Z,2.20
2018-09-15T15:43:19.044Z,1.90
2018-09-15T15:45:53.074Z,2.17
2018-09-15T15:48:25.091Z,1.67
2018-09-15T15:51:02.957Z,1.23
2018-09-15T15:53:46.225Z,1.27
2018-09-15T15:56:22.301Z,1.37
2018-09-15T15:58:58.025Z,1.47
2018-09-15T16:01:32.600Z,1.73
2018-09-15T16:04:03.137Z,2.00
2018-09-15T16:06:36.689Z,1.73
2018-09-15T16:09:31.850Z,1.90
2018-09-15T16:12:04.101Z,2.00
2018-09-15T16:14:53.901Z,2.37
2018-09-15T16:17:32.307Z,1.20
2018-09-15T16:20:12.488Z,1.20
2018-09-15T16:22:50.134Z,1.20
2018-09-15T16:25:23.722Z,1.40
2018-09-15T16:27:59.560Z,2.20
2018-09-15T16:30:40.705Z,1.80
2018-09-15T16:33:14.500Z,3.43
2018-09-15T16:35:50.141Z,1.40
2018-09-15T16:38:22.729Z,1.60
2018-09-15T16:40:55.998Z,2.20
2018-09-15T16:43:43.473Z,1.47
2018-09-15T16:46:19.695Z,1.37
2018-09-15T16:48:52.295Z,2.30
2018-09-15T16:51:28.402Z,2.00
2018-09-15T16:54:15.706Z,1.50
2018-09-15T16:56:59.199Z,1.80
2018-09-15T16:59:30.443Z,1.87
2018-09-15T17:02:05.738Z,1.70
2018-09-15T17:04:48.670Z,1.97
2018-09-15T17:07:24.170Z,2.17
2018-09-15T17:10:05.238Z,1.60
2018-09-15T17:12:38.701Z,1.70
2018-09-15T17:15:17.743Z,2.07
2018-09-15T17:17:52.189Z,2.00
2018-09-15T17:20:21.623Z,1.70
2018-09-15T17:22:51.536Z,2.10
2018-09-15T17:25:21.322Z,2.00
2018-09-15T17:27:50.695Z,2.43
2018-09-15T17:30:20.330Z,2.00
2018-09-15T17:32:50.825Z,2.30
2018-09-15T17:35:20.250Z,2.80
2018-09-15T17:37:49.670Z,2.30
2018-09-15T17:40:20.427Z,2.60
2018-09-15T17:42:50.675Z,1.87
2018-09-15T17:45:19.878Z,1.83
2018-09-15T17:47:56.272Z,2.50
2018-09-15T17:50:25.566Z,1.80
2018-09-15T17:52:54.850Z,2.40
2018-09-15T17:55:24.367Z,2.10
2018-09-15T17:57:53.507Z,2.60
2018-09-15T18:00:24.467Z,2.80
2018-09-15T18:02:53.703Z,2.13
2018-09-15T18:05:22.881Z,2.13
2018-09-15T18:07:53.059Z,2.17
2018-09-15T18:10:23.954Z,2.67
2018-09-15T18:12:54.259Z,2.77
2018-09-15T18:15:24.515Z,2.43
2018-09-15T18:17:56.227Z,2.20
2018-09-15T18:20:26.092Z,2.40
2018-09-15T18:22:58.430Z,2.77
2018-09-15T18:25:29.003Z,2.57
2018-09-15T18:28:00.235Z,2.57
2018-09-15T18:30:32.300Z,2.70
2018-09-15T18:33:02.241Z,3.00
2018-09-15T18:35:34.206Z,2.33
2018-09-15T18:38:06.248Z,2.97
2018-09-15T18:40:39.475Z,2.93
2018-09-15T18:43:09.190Z,2.77
2018-09-15T18:45:40.968Z,3.30
2018-09-15T18:48:10.400Z,2.53
2018-09-15T18:50:40.589Z,3.07
2018-09-15T18:53:10.993Z,2.90
2018-09-15T18:55:40.640Z,3.07
2018-09-15T18:58:10.097Z,2.80
2018-09-15T19:00:39.833Z,3.50
2018-09-15T19:03:13.453Z,2.87
2018-09-15T19:05:42.989Z,2.80
2018-09-15T19:08:12.793Z,3.23
2018-09-15T19:10:43.740Z,3.23
2018-09-15T19:13:14.001Z,3.17
2018-09-15T19:15:44.075Z,2.97
2018-09-15T19:18:14.437Z,3.60
2018-09-15T19:20:45.169Z,3.53
2018-09-15T19:23:14.563Z,3.20
2018-09-15T19:25:43.945Z,3.47
2018-09-15T19:28:13.834Z,2.90
2018-09-15T19:30:43.195Z,3.50
2018-09-15T19:33:12.510Z,3.00
2018-09-15T19:35:41.679Z,3.50
2018-09-15T19:38:10.833Z,3.37
2018-09-15T19:40:40.029Z,4.90
2018-09-15T19:43:09.242Z,2.90
2018-09-15T19:45:38.569Z,4.00
2018-09-15T19:48:07.677Z,2.50
2018-09-15T19:50:36.782Z,3.10
2018-09-15T19:53:05.915Z,3.20
2018-09-15T19:55:35.099Z,3.80
2018-09-15T19:58:04.208Z,3.60
2018-09-15T20:00:33.352Z,3.80
2018-09-15T20:03:03.233Z,3.50
2018-09-15T20:05:32.485Z,4.03
2018-09-15T20:08:01.663Z,4.53
2018-09-15T20:10:30.802Z,4.17
2018-09-15T20:13:00.032Z,3.70
2018-09-15T20:15:28.963Z,2.97
2018-09-15T20:17:56.928Z,3.40
2018-09-15T20:20:25.322Z,4.47
2018-09-15T20:22:56.117Z,4.40
2018-09-15T20:25:25.746Z,4.90
2018-09-15T20:27:55.493Z,4.60
2018-09-15T20:30:25.349Z,4.83
2018-09-15T20:32:56.099Z,3.70
2018-09-15T20:35:25.253Z,3.60
2018-09-15T20:37:54.469Z,4.50
2018-09-15T20:40:24.415Z,5.13
2018-09-15T20:42:53.577Z,3.93
2018-09-15T20:45:22.669Z,4.03
2018-09-15T20:47:51.884Z,4.53
2018-09-15T20:50:21.147Z,4.53
2018-09-15T20:52:50.282Z,5.20
2018-09-15T20:55:19.441Z,4.73
2018-09-15T20:57:48.508Z,4.70
2018-09-15T21:00:17.701Z,4.77
2018-09-15T21:02:46.901Z,4.53
2018-09-15T21:05:17.058Z,4.40
2018-09-15T21:07:46.130Z,5.10
2018-09-15T21:10:15.260Z,5.20
2018-09-15T21:12:44.602Z,5.90
2018-09-15T21:15:13.722Z,5.10
2018-09-15T21:17:42.928Z,4.90
2018-09-15T21:20:12.084Z,4.53
2018-09-15T21:22:41.562Z,4.37
2018-09-15T21:25:10.728Z,4.03
2018-09-15T21:27:39.938Z,4.20
2018-09-15T21:30:09.257Z,4.70
2018-09-15T21:32:39.323Z,4.40
2018-09-15T21:35:08.655Z,4.23
2018-09-15T21:37:38.185Z,6.40
2018-09-15T21:40:07.582Z,4.53
2018-09-15T21:42:36.866Z,3.77
2018-09-15T21:45:08.557Z,3.90
2018-09-15T21:47:38.138Z,4.20
2018-09-15T21:50:07.693Z,3.20
2018-09-15T21:52:37.082Z,4.00
2018-09-15T21:55:07.814Z,4.23
2018-09-15T21:57:37.215Z,4.40
2018-09-15T22:00:10.062Z,4.33
2018-09-15T22:02:39.650Z,4.40
2018-09-15T22:05:09.419Z,4.67
2018-09-15T22:07:38.940Z,4.30
2018-09-15T22:10:08.238Z,4.37
2018-09-15T22:12:37.498Z,4.70
2018-09-15T22:15:10.876Z,4.80
2018-09-15T22:17:40.571Z,4.00
2018-09-15T22:20:09.699Z,3.80
2018-09-15T22:22:39.019Z,5.07
2018-09-15T22:25:08.185Z,4.60
2018-09-15T22:27:37.386Z,4.70
2018-09-15T22:30:07.460Z,4.27
2018-09-15T22:32:36.801Z,4.00
2018-09-15T22:35:05.977Z,4.30
2018-09-15T22:37:35.118Z,4.63
2018-09-15T22:40:04.790Z,3.57
2018-09-15T22:42:33.934Z,3.80
2018-09-15T22:45:03.602Z,3.63
2018-09-15T22:47:32.839Z,4.93
2018-09-15T22:50:02.109Z,4.50
2018-09-15T22:52:31.357Z,3.90
2018-09-15T22:55:00.683Z,3.33
2018-09-15T22:57:29.776Z,3.80
2018-09-15T22:59:59.094Z,3.80
2018-09-15T23:02:35.080Z,3.50
2018-09-15T23:05:04.223Z,4.33
2018-09-15T23:07:33.422Z,3.10
2018-09-15T23:10:02.609Z,3.77
2018-09-15T23:12:31.822Z,4.00
2018-09-15T23:15:00.984Z,3.90
2018-09-15T23:17:30.200Z,4.03
2018-09-15T23:19:59.281Z,3.80
2018-09-15T23:22:28.566Z,4.10
2018-09-15T23:24:57.699Z,3.93
2018-09-15T23:27:26.869Z,4.33
2018-09-15T23:29:56.199Z,4.53
2018-09-15T23:32:25.401Z,3.50
2018-09-15T23:34:54.694Z,3.60
2018-09-15T23:37:23.847Z,3.73
2018-09-15T23:39:53.074Z,4.70
2018-09-15T23:42:22.224Z,4.20
2018-09-15T23:44:51.326Z,3.90
2018-09-15T23:47:20.432Z,5.50
2018-09-15T23:49:49.612Z,5.07
2018-09-15T23:52:18.718Z,4.53
2018-09-15T23:54:47.915Z,4.10
2018-09-15T23:57:17.106Z,5.07
2018-09-15T23:59:46.267Z,3.57
